West Granby, Connecticut
Current Conditions -  °F | °C
As of 1:51 PM on Friday 28 Nov 2014 (Local Time) from KBDL Reporting Station
Scattered Clouds Scattered Clouds  
Wind Chill: 28°   Ceiling: Unl
Heat Index: 36°   Visibility: 10mi
Dew Point: 18°   Wind: 12mph
Humidity: 48%   Direction: 340°NNW
Pressure: 30.09"   Gusts: NA
Location:  41.96°N, 72.84°W
Report Text: KBDL 281851Z 34010KT 10SM SCT040 SCT047 02/M08 A3009 RMK AO2 SLP191 T00221078
Loading
Personal Weather Stations






























Interactive Weather Map New forecast layout! Learn more

10-Day Weather Forecast

Advertisements
Track Severe Weather on mobile